createdAt,value
2018-08-12T00:00:56.859Z,18.30
2018-08-12T00:03:25.143Z,18.20
2018-08-12T00:05:53.454Z,18.10
2018-08-12T00:08:21.799Z,17.90
2018-08-12T00:10:50.160Z,17.80
2018-08-12T00:13:18.572Z,17.80
2018-08-12T00:15:46.920Z,17.90
2018-08-12T00:18:15.250Z,17.90
2018-08-12T00:20:43.611Z,17.90
2018-08-12T00:23:11.929Z,17.90
2018-08-12T00:25:40.291Z,17.90
2018-08-12T00:28:08.688Z,17.90
2018-08-12T00:30:37.035Z,17.90
2018-08-12T00:33:05.345Z,17.90
2018-08-12T00:35:33.697Z,17.90
2018-08-12T00:38:02.033Z,17.70
2018-08-12T00:40:30.314Z,17.70
2018-08-12T00:42:58.647Z,17.70
2018-08-12T00:45:26.995Z,17.60
2018-08-12T00:47:55.312Z,17.70
2018-08-12T00:50:23.589Z,17.60
2018-08-12T00:52:51.925Z,17.60
2018-08-12T00:55:20.291Z,17.50
2018-08-12T00:57:48.933Z,17.50
2018-08-12T01:00:19.987Z,17.40
2018-08-12T01:02:48.327Z,17.40
2018-08-12T01:05:17.774Z,17.40
2018-08-12T01:07:47.114Z,17.30
2018-08-12T01:10:15.865Z,17.20
2018-08-12T01:12:44.408Z,17.30
2018-08-12T01:15:14.766Z,17.20
2018-08-12T01:17:43.594Z,17.20
2018-08-12T01:20:14.092Z,17.20
2018-08-12T01:22:42.598Z,17.20
2018-08-12T01:25:11.455Z,16.80
2018-08-12T01:27:39.845Z,16.80
2018-08-12T01:30:11.709Z,16.60
2018-08-12T01:32:40.236Z,16.70
2018-08-12T01:35:10.024Z,16.70
2018-08-12T01:37:38.500Z,16.80
2018-08-12T01:40:08.926Z,16.70
2018-08-12T01:42:37.695Z,16.70
2018-08-12T01:45:06.507Z,16.50
2018-08-12T01:47:34.858Z,16.50
2018-08-12T01:50:03.234Z,16.60
2018-08-12T01:52:31.554Z,16.60
2018-08-12T01:54:59.889Z,16.60
2018-08-12T01:57:28.218Z,16.60
2018-08-12T01:59:56.528Z,16.50
2018-08-12T02:02:24.926Z,16.60
2018-08-12T02:04:53.393Z,16.60
2018-08-12T02:07:21.710Z,16.60
2018-08-12T02:09:50.024Z,16.60
2018-08-12T02:12:18.373Z,16.60
2018-08-12T02:14:46.824Z,16.50
2018-08-12T02:17:15.122Z,16.40
2018-08-12T02:19:43.425Z,16.30
2018-08-12T02:22:11.759Z,16.10
2018-08-12T02:24:40.057Z,16.10
2018-08-12T02:27:08.412Z,16.10
2018-08-12T02:29:36.988Z,16.00
2018-08-12T02:32:05.303Z,16.00
2018-08-12T02:34:33.594Z,16.10
2018-08-12T02:37:02.128Z,16.00
2018-08-12T02:39:30.417Z,15.90
2018-08-12T02:41:58.743Z,15.90
2018-08-12T02:44:27.044Z,16.00
2018-08-12T02:46:55.360Z,16.00
2018-08-12T02:49:23.692Z,15.90
2018-08-12T02:51:52.074Z,15.90
2018-08-12T02:54:20.381Z,15.90
2018-08-12T02:56:48.739Z,15.80
2018-08-12T02:59:17.040Z,15.50
2018-08-12T03:01:45.358Z,15.30
2018-08-12T03:04:13.649Z,15.50
2018-08-12T03:06:42.035Z,15.60
2018-08-12T03:09:12.056Z,15.50
2018-08-12T03:11:40.595Z,15.50
2018-08-12T03:14:09.660Z,15.30
2018-08-12T03:16:38.111Z,15.30
2018-08-12T03:19:06.452Z,15.30
2018-08-12T03:21:34.774Z,15.30
2018-08-12T03:24:03.113Z,15.30
2018-08-12T03:26:31.635Z,15.20
2018-08-12T03:28:59.955Z,15.20
2018-08-12T03:31:28.258Z,15.20
2018-08-12T03:33:56.599Z,15.30
2018-08-12T03:36:25.808Z,15.30
2018-08-12T03:38:54.132Z,15.30
2018-08-12T03:41:22.455Z,15.30
2018-08-12T03:43:50.823Z,15.30
2018-08-12T03:46:19.259Z,15.30
2018-08-12T03:48:47.638Z,15.30
2018-08-12T03:51:15.987Z,15.20
2018-08-12T03:53:44.316Z,15.00
2018-08-12T03:56:12.631Z,15.00
2018-08-12T03:58:41.015Z,15.00
2018-08-12T04:01:09.349Z,14.90
2018-08-12T04:03:37.699Z,14.90
2018-08-12T04:06:06.015Z,14.90
2018-08-12T04:08:34.370Z,15.00
2018-08-12T04:11:02.723Z,14.80
2018-08-12T04:13:31.067Z,14.90
2018-08-12T04:15:59.362Z,14.80
2018-08-12T04:18:27.700Z,14.80
2018-08-12T04:20:56.034Z,14.80
2018-08-12T04:23:24.424Z,14.90
2018-08-12T04:25:52.770Z,14.80
2018-08-12T04:28:21.176Z,14.70
2018-08-12T04:30:49.489Z,14.60
2018-08-12T04:33:17.823Z,14.70
2018-08-12T04:35:46.135Z,14.70
2018-08-12T04:38:14.454Z,14.80
2018-08-12T04:40:42.773Z,14.80
2018-08-12T04:43:11.118Z,14.80
2018-08-12T04:45:39.428Z,14.70
2018-08-12T04:48:07.792Z,14.70
2018-08-12T04:50:36.138Z,14.60
2018-08-12T04:53:04.456Z,14.70
2018-08-12T04:55:32.779Z,14.70
2018-08-12T04:58:01.144Z,14.70
2018-08-12T05:00:29.455Z,14.50
2018-08-12T05:02:57.808Z,14.60
2018-08-12T05:05:26.129Z,14.70
2018-08-12T05:07:54.457Z,14.70
2018-08-12T05:10:22.832Z,14.70
2018-08-12T05:12:51.144Z,14.70
2018-08-12T05:15:19.483Z,14.70
2018-08-12T05:17:47.861Z,14.70
2018-08-12T05:20:16.159Z,14.60
2018-08-12T05:22:44.484Z,14.60
2018-08-12T05:25:12.810Z,14.60
2018-08-12T05:27:41.124Z,14.70
2018-08-12T05:30:10.559Z,14.70
2018-08-12T05:32:39.547Z,14.60
2018-08-12T05:35:09.371Z,14.70
2018-08-12T05:37:37.700Z,14.80
2018-08-12T05:40:07.869Z,14.80
2018-08-12T05:42:36.336Z,14.70
2018-08-12T05:45:05.727Z,14.80
2018-08-12T05:47:34.067Z,14.80
2018-08-12T05:50:02.380Z,14.90
2018-08-12T05:52:30.736Z,14.90
2018-08-12T05:54:59.091Z,15.00
2018-08-12T05:57:27.421Z,15.10
2018-08-12T05:59:55.747Z,15.20
2018-08-12T06:02:24.031Z,15.30
2018-08-12T06:04:52.368Z,15.40
2018-08-12T06:07:20.716Z,15.40
2018-08-12T06:09:49.040Z,15.20
2018-08-12T06:12:17.346Z,15.40
2018-08-12T06:14:45.669Z,15.50
2018-08-12T06:17:14.030Z,15.50
2018-08-12T06:19:42.300Z,15.60
2018-08-12T06:22:10.640Z,15.70
2018-08-12T06:24:38.982Z,15.80
2018-08-12T06:27:07.305Z,15.90
2018-08-12T06:29:35.627Z,16.00
2018-08-12T06:32:03.967Z,16.10
2018-08-12T06:34:32.394Z,16.30
2018-08-12T06:37:00.704Z,16.40
2018-08-12T06:39:29.006Z,16.50
2018-08-12T06:41:57.332Z,16.60
2018-08-12T06:44:25.688Z,16.70
2018-08-12T06:46:54.033Z,16.70
2018-08-12T06:49:22.396Z,16.80
2018-08-12T06:51:50.703Z,16.90
2018-08-12T06:54:19.058Z,17.00
2018-08-12T06:56:47.387Z,17.10
2018-08-12T06:59:15.738Z,17.20
2018-08-12T07:01:44.054Z,17.20
2018-08-12T07:04:12.411Z,17.30
2018-08-12T07:06:40.696Z,17.40
2018-08-12T07:09:10.261Z,17.40
2018-08-12T07:11:38.624Z,17.40
2018-08-12T07:14:07.596Z,17.40
2018-08-12T07:16:36.471Z,17.50
2018-08-12T07:19:05.162Z,17.60
2018-08-12T07:21:33.527Z,17.70
2018-08-12T07:24:02.328Z,17.80
2018-08-12T07:26:31.159Z,18.00
2018-08-12T07:28:59.490Z,18.10
2018-08-12T07:31:27.959Z,18.20
2018-08-12T07:33:56.339Z,18.30
2018-08-12T07:36:24.670Z,18.40
2018-08-12T07:38:53.022Z,18.50
2018-08-12T07:41:21.335Z,18.50
2018-08-12T07:43:49.699Z,18.60
2018-08-12T07:46:18.008Z,18.70
2018-08-12T07:48:46.567Z,18.80
2018-08-12T07:51:14.906Z,18.90
2018-08-12T07:53:43.229Z,18.80
2018-08-12T07:56:11.546Z,18.90
2018-08-12T07:58:39.861Z,19.00
2018-08-12T08:01:08.167Z,19.10
2018-08-12T08:03:36.540Z,19.30
2018-08-12T08:06:04.849Z,19.40
2018-08-12T08:08:33.200Z,19.50
2018-08-12T08:11:01.520Z,19.60
2018-08-12T08:13:29.823Z,19.60
2018-08-12T08:15:58.186Z,19.70
2018-08-12T08:18:26.506Z,19.70
2018-08-12T08:20:54.875Z,19.90
2018-08-12T08:23:23.174Z,19.90
2018-08-12T08:25:58.075Z,20.10
2018-08-12T08:28:26.393Z,20.20
2018-08-12T08:30:54.731Z,20.30
2018-08-12T08:33:23.064Z,20.30
2018-08-12T08:35:51.471Z,20.50
2018-08-12T08:38:19.805Z,20.50
2018-08-12T08:40:48.122Z,20.60
2018-08-12T08:43:16.449Z,20.70
2018-08-12T08:45:44.762Z,20.80
2018-08-12T08:48:19.530Z,21.00
2018-08-12T08:50:47.926Z,21.10
2018-08-12T08:53:16.253Z,21.10
2018-08-12T08:55:44.608Z,21.20
2018-08-12T08:58:12.924Z,21.20
2018-08-12T09:00:41.429Z,21.30
2018-08-12T09:03:09.742Z,21.40
2018-08-12T09:05:38.075Z,21.50
2018-08-12T09:08:06.592Z,21.60
2018-08-12T09:10:34.846Z,21.70
2018-08-12T09:13:03.270Z,21.60
2018-08-12T09:15:31.618Z,21.60
2018-08-12T09:17:59.975Z,21.80
2018-08-12T09:20:28.287Z,21.90
2018-08-12T09:22:56.627Z,21.90
2018-08-12T09:25:25.073Z,22.10
2018-08-12T09:27:53.483Z,22.10
2018-08-12T09:30:22.478Z,22.30
2018-08-12T09:32:51.684Z,22.40
2018-08-12T09:35:20.037Z,22.30
2018-08-12T09:37:48.391Z,22.40
2018-08-12T09:40:17.779Z,22.60
2018-08-12T09:42:47.788Z,22.40
2018-08-12T09:45:18.152Z,22.60
2018-08-12T09:47:46.906Z,22.70
2018-08-12T09:50:16.610Z,22.70
2018-08-12T09:52:46.115Z,22.80
2018-08-12T09:55:15.018Z,22.90
2018-08-12T09:57:43.348Z,23.00
2018-08-12T10:00:47.413Z,23.10
2018-08-12T10:03:15.721Z,23.20
2018-08-12T10:05:44.040Z,23.30
2018-08-12T10:08:12.345Z,23.40
2018-08-12T10:10:40.723Z,23.40
2018-08-12T10:13:09.041Z,23.50
2018-08-12T10:15:37.475Z,23.60
2018-08-12T10:18:05.843Z,23.60
2018-08-12T10:20:34.184Z,23.70
2018-08-12T10:23:02.522Z,23.70
2018-08-12T10:25:30.900Z,23.70
2018-08-12T10:27:59.215Z,23.80
2018-08-12T10:30:27.530Z,23.90
2018-08-12T10:32:55.845Z,24.00
2018-08-12T10:35:24.201Z,24.00
2018-08-12T10:37:52.505Z,24.10
2018-08-12T10:40:21.371Z,24.20
2018-08-12T10:42:50.470Z,24.20
2018-08-12T10:45:18.831Z,24.20
2018-08-12T10:47:47.196Z,24.30
2018-08-12T10:50:20.220Z,24.20
2018-08-12T10:52:49.294Z,24.20
2018-08-12T10:55:20.303Z,24.30
2018-08-12T10:57:48.678Z,24.50
2018-08-12T11:00:19.908Z,24.70
2018-08-12T11:02:48.576Z,24.90
2018-08-12T11:05:17.450Z,25.00
2018-08-12T11:07:47.298Z,25.00
2018-08-12T11:10:15.705Z,25.00
2018-08-12T11:12:44.047Z,25.10
2018-08-12T11:15:12.364Z,25.20
2018-08-12T11:17:41.272Z,25.20
2018-08-12T11:20:10.184Z,25.30
2018-08-12T11:22:38.585Z,25.30
2018-08-12T11:25:08.252Z,25.20
2018-08-12T11:27:36.572Z,25.20
2018-08-12T11:30:10.738Z,25.20
2018-08-12T11:32:39.322Z,25.30
2018-08-12T11:35:09.778Z,25.50
2018-08-12T11:37:38.346Z,25.70
2018-08-12T11:40:08.126Z,25.50
2018-08-12T11:42:36.476Z,25.60
2018-08-12T11:45:07.042Z,25.70
2018-08-12T11:47:35.431Z,25.80
2018-08-12T11:50:04.701Z,25.80
2018-08-12T11:52:33.023Z,25.90
2018-08-12T11:55:01.352Z,25.90
2018-08-12T11:57:29.672Z,26.00
2018-08-12T11:59:58.008Z,25.90
2018-08-12T12:02:26.345Z,25.90
2018-08-12T12:04:54.664Z,26.00
2018-08-12T12:07:22.987Z,26.20
2018-08-12T12:09:51.322Z,26.40
2018-08-12T12:12:19.646Z,26.50
2018-08-12T12:14:47.996Z,26.60
2018-08-12T12:17:16.313Z,26.70
2018-08-12T12:19:44.599Z,26.60
2018-08-12T12:22:12.931Z,26.70
2018-08-12T12:24:41.228Z,26.80
2018-08-12T12:27:09.560Z,26.70
2018-08-12T12:29:37.855Z,26.80
2018-08-12T12:32:06.237Z,26.90
2018-08-12T12:34:34.593Z,27.00
2018-08-12T12:37:02.936Z,27.10
2018-08-12T12:39:31.219Z,27.20
2018-08-12T12:41:59.610Z,27.30
2018-08-12T12:44:27.926Z,27.20
2018-08-12T12:46:56.293Z,27.40
2018-08-12T12:49:24.628Z,27.40
2018-08-12T12:51:52.972Z,27.50
2018-08-12T12:54:21.276Z,27.50
2018-08-12T12:56:49.605Z,27.60
2018-08-12T12:59:17.944Z,27.60
2018-08-12T13:01:46.359Z,27.80
2018-08-12T13:04:14.746Z,28.10
2018-08-12T13:06:43.079Z,28.20
2018-08-12T13:09:13.047Z,28.20
2018-08-12T13:11:41.645Z,28.10
2018-08-12T13:14:09.952Z,28.00
2018-08-12T13:16:38.283Z,28.30
2018-08-12T13:19:06.991Z,28.50
2018-08-12T13:21:35.471Z,28.70
2018-08-12T13:24:03.904Z,28.80
2018-08-12T13:26:32.249Z,28.70
2018-08-12T13:29:00.607Z,28.90
2018-08-12T13:31:28.899Z,29.00
2018-08-12T13:33:57.226Z,29.10
2018-08-12T13:36:25.551Z,29.50
2018-08-12T13:38:53.891Z,29.70
2018-08-12T13:41:22.221Z,30.00
2018-08-12T13:43:50.767Z,30.20
2018-08-12T13:46:19.269Z,30.30
2018-08-12T13:48:47.680Z,30.40
2018-08-12T13:51:16.032Z,30.70
2018-08-12T13:53:44.388Z,31.00
2018-08-12T13:56:12.716Z,31.40
2018-08-12T13:58:41.044Z,31.70
2018-08-12T14:01:09.420Z,31.50
2018-08-12T14:03:37.852Z,31.80
2018-08-12T14:06:06.230Z,32.00
2018-08-12T14:08:34.575Z,32.20
2018-08-12T14:11:02.891Z,32.00
2018-08-12T14:13:31.261Z,32.50
2018-08-12T14:15:59.532Z,32.90
2018-08-12T14:18:27.876Z,32.90
2018-08-12T14:20:56.223Z,33.40
2018-08-12T14:23:24.514Z,33.10
2018-08-12T14:25:52.823Z,33.30
2018-08-12T14:28:21.152Z,33.00
2018-08-12T14:30:49.467Z,32.60
2018-08-12T14:33:17.812Z,32.50
2018-08-12T14:35:46.179Z,32.80
2018-08-12T14:38:14.531Z,32.80
2018-08-12T14:40:42.812Z,32.90
2018-08-12T14:43:11.132Z,32.70
2018-08-12T14:45:39.465Z,33.10
2018-08-12T14:48:07.831Z,33.60
2018-08-12T14:50:36.134Z,33.90
2018-08-12T14:53:04.504Z,34.30
2018-08-12T14:55:32.861Z,33.80
2018-08-12T14:58:01.176Z,33.30
2018-08-12T15:00:29.518Z,33.20
2018-08-12T15:02:57.859Z,33.50
2018-08-12T15:05:26.188Z,33.80
2018-08-12T15:07:55.178Z,34.10
2018-08-12T15:10:23.550Z,33.90
2018-08-12T15:12:51.855Z,34.10
2018-08-12T15:15:20.207Z,34.20
2018-08-12T15:17:48.593Z,34.30
2018-08-12T15:20:17.516Z,34.70
2018-08-12T15:22:46.409Z,34.60
2018-08-12T15:25:17.847Z,35.00
2018-08-12T15:27:46.424Z,35.70
2018-08-12T15:30:14.767Z,36.30
2018-08-12T15:32:43.064Z,36.80
2018-08-12T15:35:11.418Z,37.50
2018-08-12T15:37:39.751Z,37.60
2018-08-12T15:40:10.943Z,37.50
2018-08-12T15:42:39.299Z,37.20
2018-08-12T15:45:10.111Z,37.50
2018-08-12T15:47:38.452Z,36.80
2018-08-12T15:50:07.883Z,36.80
2018-08-12T15:52:36.244Z,37.00
2018-08-12T15:55:04.936Z,37.40
2018-08-12T15:57:33.262Z,37.80
2018-08-12T16:00:01.615Z,37.90
2018-08-12T16:02:30.348Z,38.30
2018-08-12T16:04:58.712Z,38.80
2018-08-12T16:07:27.049Z,38.50
2018-08-12T16:09:55.428Z,38.10
2018-08-12T16:12:24.667Z,37.40
2018-08-12T16:14:53.049Z,37.20
2018-08-12T16:17:21.383Z,37.20
2018-08-12T16:19:49.716Z,36.70
2018-08-12T16:22:18.144Z,36.20
2018-08-12T16:24:46.506Z,35.30
2018-08-12T16:27:14.830Z,34.60
2018-08-12T16:29:43.130Z,34.20
2018-08-12T16:32:11.449Z,33.80
2018-08-12T16:34:39.820Z,33.30
2018-08-12T16:37:08.143Z,33.10
2018-08-12T16:39:36.483Z,32.80
2018-08-12T16:42:04.846Z,32.50
2018-08-12T16:44:33.147Z,32.60
2018-08-12T16:47:01.536Z,32.10
2018-08-12T16:49:30.032Z,32.10
2018-08-12T16:51:58.535Z,32.10
2018-08-12T16:54:26.877Z,31.70
2018-08-12T16:56:55.316Z,31.50
2018-08-12T16:59:23.608Z,31.40
2018-08-12T17:01:51.955Z,31.30
2018-08-12T17:04:20.433Z,31.20
2018-08-12T17:06:48.712Z,31.00
2018-08-12T17:09:17.263Z,30.80
2018-08-12T17:11:45.668Z,30.50
2018-08-12T17:14:14.016Z,30.50
2018-08-12T17:16:42.429Z,30.30
2018-08-12T17:19:10.771Z,30.30
2018-08-12T17:21:39.304Z,30.00
2018-08-12T17:24:07.620Z,30.10
2018-08-12T17:26:35.942Z,30.00
2018-08-12T17:29:04.251Z,30.00
2018-08-12T17:31:32.600Z,29.80
2018-08-12T17:34:01.023Z,29.90
2018-08-12T17:36:29.466Z,29.80
2018-08-12T17:38:57.825Z,29.60
2018-08-12T17:41:26.182Z,29.60
2018-08-12T17:43:54.512Z,29.40
2018-08-12T17:46:22.841Z,29.40
2018-08-12T17:48:51.168Z,29.30
2018-08-12T17:51:19.530Z,29.20
2018-08-12T17:53:47.860Z,29.10
2018-08-12T17:56:16.359Z,29.00
2018-08-12T17:58:44.684Z,28.90
2018-08-12T18:01:13.001Z,28.80
2018-08-12T18:03:41.306Z,28.60
2018-08-12T18:06:09.688Z,28.60
2018-08-12T18:08:38.012Z,28.60
2018-08-12T18:11:06.372Z,28.50
2018-08-12T18:13:34.784Z,28.40
2018-08-12T18:16:03.120Z,28.40
2018-08-12T18:18:31.691Z,28.30
2018-08-12T18:21:00.029Z,28.20
2018-08-12T18:23:28.383Z,28.20
2018-08-12T18:25:56.881Z,28.10
2018-08-12T18:28:25.208Z,28.00
2018-08-12T18:30:53.623Z,28.00
2018-08-12T18:33:21.992Z,27.90
2018-08-12T18:35:50.373Z,27.80
2018-08-12T18:38:18.868Z,27.70
2018-08-12T18:40:47.198Z,27.60
2018-08-12T18:43:15.584Z,27.60
2018-08-12T18:45:43.897Z,27.60
2018-08-12T18:48:12.193Z,27.50
2018-08-12T18:50:40.479Z,27.40
2018-08-12T18:53:08.838Z,27.30
2018-08-12T18:55:37.222Z,27.30
2018-08-12T18:58:05.614Z,27.20
2018-08-12T19:00:33.957Z,27.20
2018-08-12T19:03:02.301Z,27.00
2018-08-12T19:05:30.600Z,26.90
2018-08-12T19:07:58.927Z,26.90
2018-08-12T19:10:27.431Z,26.90
2018-08-12T19:12:55.761Z,26.80
2018-08-12T19:15:25.319Z,26.80
2018-08-12T19:17:53.691Z,26.60
2018-08-12T19:20:22.008Z,26.60
2018-08-12T19:22:50.315Z,26.50
2018-08-12T19:25:19.257Z,26.50
2018-08-12T19:27:47.937Z,26.50
2018-08-12T19:30:16.451Z,26.40
2018-08-12T19:32:45.504Z,26.30
2018-08-12T19:35:14.079Z,26.30
2018-08-12T19:37:42.526Z,26.20
2018-08-12T19:40:10.944Z,26.10
2018-08-12T19:42:39.553Z,26.00
2018-08-12T19:45:09.094Z,25.90
2018-08-12T19:47:37.393Z,25.90
2018-08-12T19:50:06.154Z,25.80
2018-08-12T19:52:34.555Z,25.70
2018-08-12T19:55:02.876Z,25.60
2018-08-12T19:57:31.234Z,25.60
2018-08-12T19:59:59.637Z,25.50
2018-08-12T20:02:27.944Z,25.40
2018-08-12T20:04:56.237Z,25.20
2018-08-12T20:07:24.545Z,25.20
2018-08-12T20:09:52.831Z,25.10
2018-08-12T20:12:21.155Z,25.10
2018-08-12T20:14:49.467Z,25.00
2018-08-12T20:17:17.835Z,25.00
2018-08-12T20:19:46.237Z,24.90
2018-08-12T20:22:15.828Z,24.80
2018-08-12T20:24:44.869Z,24.70
2018-08-12T20:27:13.755Z,24.60
2018-08-12T20:29:42.323Z,24.60
2018-08-12T20:32:11.034Z,24.50
2018-08-12T20:34:39.492Z,24.50
2018-08-12T20:37:07.871Z,24.40
2018-08-12T20:39:36.305Z,24.40
2018-08-12T20:42:04.549Z,24.30
2018-08-12T20:44:32.948Z,24.20
2018-08-12T20:47:01.447Z,24.10
2018-08-12T20:49:29.864Z,24.10
2018-08-12T20:51:58.370Z,24.00
2018-08-12T20:54:26.678Z,24.00
2018-08-12T20:56:55.020Z,23.90
2018-08-12T20:59:23.428Z,23.90
2018-08-12T21:01:51.854Z,23.80
2018-08-12T21:04:20.542Z,23.80
2018-08-12T21:06:48.936Z,23.70
2018-08-12T21:09:17.340Z,23.60
2018-08-12T21:11:45.783Z,23.60
2018-08-12T21:14:14.055Z,23.50
2018-08-12T21:16:42.503Z,23.50
2018-08-12T21:19:11.031Z,23.40
2018-08-12T21:21:39.414Z,23.40
2018-08-12T21:24:07.767Z,23.30
2018-08-12T21:26:36.086Z,23.20
2018-08-12T21:29:04.535Z,23.20
2018-08-12T21:31:32.889Z,23.10
2018-08-12T21:34:01.275Z,23.10
2018-08-12T21:36:29.582Z,23.10
2018-08-12T21:38:57.952Z,23.00
2018-08-12T21:41:26.333Z,23.00
2018-08-12T21:43:54.684Z,22.90
2018-08-12T21:46:23.061Z,22.80
2018-08-12T21:48:51.392Z,22.80
2018-08-12T21:51:19.735Z,22.70
2018-08-12T21:53:48.228Z,22.70
2018-08-12T21:56:16.549Z,22.60
2018-08-12T21:58:44.877Z,22.50
2018-08-12T22:01:13.277Z,22.40
2018-08-12T22:03:41.783Z,22.50
2018-08-12T22:06:10.107Z,22.40
2018-08-12T22:08:38.424Z,22.30
2018-08-12T22:11:06.775Z,22.20
2018-08-12T22:13:35.153Z,22.20
2018-08-12T22:16:03.553Z,22.10
2018-08-12T22:18:32.034Z,22.00
2018-08-12T22:21:00.396Z,22.00
2018-08-12T22:23:28.742Z,22.00
2018-08-12T22:25:57.063Z,21.90
2018-08-12T22:28:25.388Z,21.90
2018-08-12T22:30:53.720Z,21.90
2018-08-12T22:33:22.098Z,21.90
2018-08-12T22:35:50.504Z,21.80
2018-08-12T22:38:18.850Z,21.80
2018-08-12T22:40:47.178Z,21.70
2018-08-12T22:43:15.569Z,21.70
2018-08-12T22:45:43.944Z,21.70
2018-08-12T22:48:12.327Z,21.60
2018-08-12T22:50:40.722Z,21.60
2018-08-12T22:53:09.080Z,21.50
2018-08-12T22:55:37.395Z,21.50
2018-08-12T22:58:06.051Z,21.40
2018-08-12T23:00:34.470Z,21.10
2018-08-12T23:03:02.890Z,21.10
2018-08-12T23:05:31.258Z,21.10
2018-08-12T23:08:05.003Z,21.10
2018-08-12T23:10:33.387Z,21.00
2018-08-12T23:13:01.697Z,20.90
2018-08-12T23:18:47.795Z,20.80
2018-08-12T23:21:17.275Z,20.80
2018-08-12T23:23:46.671Z,20.70
2018-08-12T23:26:16.355Z,20.70
2018-08-12T23:28:44.965Z,20.50
2018-08-12T23:31:13.332Z,20.50
2018-08-12T23:33:41.670Z,20.40
2018-08-12T23:36:10.528Z,20.40
2018-08-12T23:38:38.993Z,20.40
2018-08-12T23:41:08.367Z,20.40
2018-08-12T23:43:36.750Z,20.20
2018-08-12T23:46:05.088Z,20.20
2018-08-12T23:48:33.469Z,20.10
2018-08-12T23:51:02.788Z,20.20
2018-08-12T23:53:31.339Z,20.10
2018-08-12T23:55:59.687Z,20.00
2018-08-12T23:58:28.009Z,20.10
